createdAt,value
2022-08-20T00:00:49.452Z,56.67
2022-08-20T00:01:49.609Z,55.81
2022-08-20T00:02:49.454Z,54.74
2022-08-20T00:03:50.062Z,55.14
2022-08-20T00:04:49.392Z,52.90
2022-08-20T00:05:49.394Z,53.84
2022-08-20T00:06:49.387Z,54.60
2022-08-20T00:07:49.445Z,53.49
2022-08-20T00:08:49.397Z,56.97
2022-08-20T00:09:49.360Z,49.76
2022-08-20T00:10:53.640Z,55.19
2022-08-20T00:11:50.342Z,54.74
2022-08-20T00:12:49.346Z,55.96
2022-08-20T00:13:49.332Z,58.77
2022-08-20T00:14:49.355Z,59.89
2022-08-20T00:15:49.306Z,59.60
2022-08-20T00:16:49.304Z,53.64
2022-08-20T00:17:49.312Z,57.34
2022-08-20T00:18:49.320Z,58.29
2022-08-20T00:19:49.283Z,53.77
2022-08-20T00:20:49.271Z,58.83
2022-08-20T00:21:49.264Z,55.97
2022-08-20T00:22:49.251Z,56.63
2022-08-20T00:23:49.246Z,53.59
2022-08-20T00:24:49.259Z,57.04
2022-08-20T00:25:49.238Z,54.61
2022-08-20T00:26:51.678Z,51.50
2022-08-20T00:27:49.256Z,53.71
2022-08-20T00:28:49.207Z,55.72
2022-08-20T00:29:49.203Z,55.36
2022-08-20T00:30:49.207Z,59.84
2022-08-20T00:31:49.180Z,53.64
2022-08-20T00:32:49.170Z,57.25
2022-08-20T00:33:49.173Z,53.92
2022-08-20T00:34:49.167Z,55.41
2022-08-20T00:35:49.145Z,52.41
2022-08-20T00:36:49.165Z,54.39
2022-08-20T00:37:50.070Z,56.21
2022-08-20T00:38:49.133Z,52.81
2022-08-20T00:39:49.183Z,55.29
2022-08-20T00:40:49.118Z,59.35
2022-08-20T00:41:49.111Z,55.01
2022-08-20T00:42:49.137Z,56.47
2022-08-20T00:43:49.101Z,54.81
2022-08-20T00:44:49.091Z,55.29
2022-08-20T00:45:49.140Z,56.65
2022-08-20T00:46:49.073Z,60.29
2022-08-20T00:47:51.351Z,56.24
2022-08-20T00:48:49.068Z,55.94
2022-08-20T00:49:49.060Z,59.38
2022-08-20T00:50:49.028Z,57.97
2022-08-20T00:51:49.020Z,60.45
2022-08-20T00:52:49.747Z,58.61
2022-08-20T00:53:49.030Z,60.13
2022-08-20T00:54:49.018Z,56.16
2022-08-20T00:55:48.993Z,55.87
2022-08-20T00:56:48.986Z,55.18
2022-08-20T00:57:59.887Z,57.98
2022-08-20T00:58:49.971Z,57.49
2022-08-20T00:59:48.991Z,59.81
2022-08-20T01:00:48.981Z,55.69
2022-08-20T01:01:50.665Z,57.36
2022-08-20T01:02:49.925Z,61.59
2022-08-20T01:03:48.947Z,55.86
2022-08-20T01:04:48.953Z,51.27
2022-08-20T01:05:48.934Z,55.28
2022-08-20T01:06:48.915Z,50.89
2022-08-20T01:07:48.955Z,57.45
2022-08-20T01:08:48.901Z,60.74
2022-08-20T01:09:58.423Z,55.57
2022-08-20T01:10:49.899Z,56.79
2022-08-20T01:11:48.933Z,51.19
2022-08-20T01:12:48.849Z,50.48
2022-08-20T01:13:49.930Z,58.89
2022-08-20T01:14:48.879Z,57.26
2022-08-20T01:15:48.828Z,55.40
2022-08-20T01:16:48.842Z,53.34
2022-08-20T01:17:48.824Z,54.76
2022-08-20T01:18:48.818Z,59.66
2022-08-20T01:19:48.814Z,60.33
2022-08-20T01:20:48.825Z,55.67
2022-08-20T01:21:49.788Z,56.88
2022-08-20T01:22:48.827Z,53.83
2022-08-20T01:23:48.775Z,51.49
2022-08-20T01:24:48.756Z,50.68
2022-08-20T01:25:48.760Z,58.95
2022-08-20T01:26:48.740Z,53.13
2022-08-20T01:27:48.741Z,57.90
2022-08-20T01:28:49.750Z,52.93
2022-08-20T01:29:48.714Z,56.49
2022-08-20T01:30:48.707Z,53.18
2022-08-20T01:31:48.695Z,55.77
2022-08-20T01:32:48.716Z,52.83
2022-08-20T01:33:48.715Z,58.13
2022-08-20T01:34:48.680Z,55.94
2022-08-20T01:35:48.673Z,54.85
2022-08-20T01:36:48.671Z,59.57
2022-08-20T01:37:48.733Z,60.05
2022-08-20T01:38:54.083Z,49.00
2022-08-20T01:39:49.671Z,54.71
2022-08-20T01:40:48.648Z,56.40
2022-08-20T01:41:48.614Z,52.99
2022-08-20T01:42:59.026Z,55.69
2022-08-20T01:43:49.658Z,58.28
2022-08-20T01:44:48.593Z,58.97
2022-08-20T01:45:48.695Z,53.70
2022-08-20T01:46:48.574Z,51.56
2022-08-20T01:47:49.747Z,54.24
2022-08-20T01:48:48.575Z,58.07
2022-08-20T01:49:48.561Z,55.11
2022-08-20T01:50:48.576Z,50.17
2022-08-20T01:51:48.649Z,55.13
2022-08-20T01:52:48.535Z,58.10
2022-08-20T01:53:48.521Z,55.83
2022-08-20T01:54:48.523Z,56.78
2022-08-20T01:55:48.513Z,58.04
2022-08-20T01:56:48.509Z,59.03
2022-08-20T01:57:48.482Z,54.69
2022-08-20T01:58:48.481Z,52.21
2022-08-20T01:59:49.477Z,53.62
2022-08-20T02:00:48.459Z,56.69
2022-08-20T02:01:48.487Z,53.83
2022-08-20T02:02:48.501Z,54.18
2022-08-20T02:03:48.444Z,54.29
2022-08-20T02:04:48.433Z,50.40
2022-08-20T02:05:48.447Z,50.46
2022-08-20T02:06:56.178Z,58.50
2022-08-20T02:07:49.440Z,53.79
2022-08-20T02:08:48.403Z,53.15
2022-08-20T02:09:48.407Z,58.41
2022-08-20T02:10:48.403Z,54.64
2022-08-20T02:11:48.370Z,56.25
2022-08-20T02:12:48.392Z,56.63
2022-08-20T02:13:48.366Z,54.39
2022-08-20T02:14:48.627Z,60.05
2022-08-20T02:15:48.372Z,53.50
2022-08-20T02:16:54.475Z,56.16
2022-08-20T02:17:49.388Z,51.13
2022-08-20T02:18:48.322Z,52.86
2022-08-20T02:19:48.312Z,51.76
2022-08-20T02:20:48.308Z,54.20
2022-08-20T02:21:48.314Z,54.11
2022-08-20T02:22:49.305Z,54.87
2022-08-20T02:23:48.294Z,51.92
2022-08-20T02:24:48.276Z,56.25
2022-08-20T02:25:48.259Z,53.62
2022-08-20T02:26:48.253Z,56.85
2022-08-20T02:27:48.249Z,54.66
2022-08-20T02:28:48.237Z,57.05
2022-08-20T02:29:48.255Z,56.93
2022-08-20T02:30:48.228Z,57.85
2022-08-20T02:32:32.108Z,52.50
2022-08-20T02:32:49.212Z,55.81
2022-08-20T02:34:14.832Z,59.05
2022-08-20T02:34:49.230Z,55.41
2022-08-20T02:35:48.183Z,59.02
2022-08-20T02:36:48.173Z,58.03
2022-08-20T02:37:48.150Z,57.57
2022-08-20T02:38:48.181Z,57.38
2022-08-20T02:39:48.186Z,56.95
2022-08-20T02:40:48.132Z,57.00
2022-08-20T02:41:48.159Z,55.49
2022-08-20T02:42:48.183Z,57.89
2022-08-20T02:43:48.125Z,57.65
2022-08-20T02:44:48.101Z,51.80
2022-08-20T02:45:48.095Z,54.02
2022-08-20T02:46:48.094Z,56.60
2022-08-20T02:47:48.104Z,57.74
2022-08-20T02:48:48.082Z,56.62
2022-08-20T02:49:48.067Z,53.01
2022-08-20T02:50:48.064Z,50.89
2022-08-20T02:51:48.105Z,55.70
2022-08-20T02:52:52.158Z,56.47
2022-08-20T02:53:48.034Z,55.28
2022-08-20T02:54:48.025Z,57.34
2022-08-20T02:55:48.014Z,54.05
2022-08-20T02:56:48.004Z,59.95
2022-08-20T02:57:48.016Z,53.32
2022-08-20T02:58:47.990Z,57.59
2022-08-20T02:59:47.998Z,52.82
2022-08-20T03:00:47.977Z,57.06
2022-08-20T03:01:47.979Z,59.45
2022-08-20T03:02:48.983Z,59.88
2022-08-20T03:03:47.953Z,57.54
2022-08-20T03:04:47.948Z,56.26
2022-08-20T03:05:47.956Z,52.60
2022-08-20T03:06:47.939Z,58.19
2022-08-20T03:07:47.929Z,57.43
2022-08-20T03:08:47.932Z,57.16
2022-08-20T03:09:47.897Z,52.12
2022-08-20T03:10:47.917Z,61.07
2022-08-20T03:11:47.904Z,57.81
2022-08-20T03:12:47.876Z,58.23
2022-08-20T03:13:47.890Z,58.74
2022-08-20T03:14:47.865Z,59.29
2022-08-20T03:15:47.848Z,55.45
2022-08-20T03:16:47.839Z,60.29
2022-08-20T03:17:47.829Z,59.33
2022-08-20T03:18:47.826Z,54.01
2022-08-20T03:19:47.836Z,57.97
2022-08-20T03:20:52.165Z,56.58
2022-08-20T03:21:47.816Z,57.52
2022-08-20T03:22:47.792Z,58.22
2022-08-20T03:23:47.783Z,56.87
2022-08-20T03:24:47.793Z,56.09
2022-08-20T03:25:47.789Z,55.27
2022-08-20T03:26:47.767Z,58.67
2022-08-20T03:27:49.921Z,58.89
2022-08-20T03:28:49.382Z,62.31
2022-08-20T03:29:47.751Z,56.80
2022-08-20T03:30:47.811Z,56.87
2022-08-20T03:31:47.734Z,59.93
2022-08-20T03:32:47.749Z,57.40
2022-08-20T03:33:53.589Z,58.97
2022-08-20T03:34:48.699Z,60.31
2022-08-20T03:35:47.689Z,55.45
2022-08-20T03:36:47.682Z,56.97
2022-08-20T03:37:48.503Z,58.48
2022-08-20T03:38:47.660Z,54.18
2022-08-20T03:39:47.750Z,58.13
2022-08-20T03:40:47.659Z,60.10
2022-08-20T03:41:47.666Z,55.92
2022-08-20T03:42:47.643Z,58.37
2022-08-20T03:43:47.665Z,56.52
2022-08-20T03:44:47.636Z,55.20
2022-08-20T03:45:48.615Z,53.53
2022-08-20T03:46:47.613Z,55.85
2022-08-20T03:47:47.668Z,58.86
2022-08-20T03:48:47.597Z,59.06
2022-08-20T03:49:47.625Z,57.05
2022-08-20T03:50:47.577Z,59.12
2022-08-20T03:51:57.389Z,56.92
2022-08-20T03:52:48.563Z,56.39
2022-08-20T03:53:47.545Z,53.93
2022-08-20T03:54:47.548Z,59.89
2022-08-20T03:55:54.127Z,56.24
2022-08-20T03:56:48.549Z,60.50
2022-08-20T03:57:47.518Z,57.50
2022-08-20T03:58:47.527Z,59.25
2022-08-20T03:59:51.940Z,60.86
2022-08-20T04:00:48.525Z,60.91
2022-08-20T04:01:47.541Z,53.62
2022-08-20T04:02:47.486Z,58.94
2022-08-20T04:03:49.992Z,61.72
2022-08-20T04:04:47.468Z,57.39
2022-08-20T04:05:47.481Z,60.25
2022-08-20T04:06:47.468Z,57.04
2022-08-20T04:07:47.448Z,58.37
2022-08-20T04:08:47.431Z,57.72
2022-08-20T04:09:47.415Z,58.69
2022-08-20T04:10:47.430Z,60.77
2022-08-20T04:11:47.428Z,56.75
2022-08-20T04:12:52.673Z,57.99
2022-08-20T04:13:48.597Z,58.99
2022-08-20T04:14:47.379Z,58.84
2022-08-20T04:15:47.403Z,60.42
2022-08-20T04:16:47.570Z,59.17
2022-08-20T04:17:48.118Z,62.40
2022-08-20T04:18:56.215Z,59.90
2022-08-20T04:19:48.344Z,60.94
2022-08-20T04:20:47.332Z,63.73
2022-08-20T04:21:47.342Z,55.81
2022-08-20T04:22:58.761Z,62.42
2022-08-20T04:23:48.314Z,61.26
2022-08-20T04:24:47.293Z,57.98
2022-08-20T04:25:47.299Z,58.43
2022-08-20T04:26:47.308Z,60.25
2022-08-20T04:27:47.271Z,59.73
2022-08-20T04:28:47.267Z,59.05
2022-08-20T04:29:47.258Z,58.27
2022-08-20T04:30:51.634Z,60.55
2022-08-20T04:31:47.291Z,54.95
2022-08-20T04:32:47.264Z,60.41
2022-08-20T04:33:47.217Z,59.46
2022-08-20T04:34:47.308Z,53.65
2022-08-20T04:35:47.218Z,59.03
2022-08-20T04:36:47.205Z,59.37
2022-08-20T04:37:47.222Z,55.98
2022-08-20T04:38:49.793Z,53.42
2022-08-20T04:39:47.273Z,60.29
2022-08-20T04:40:47.171Z,59.04
2022-08-20T04:41:47.174Z,57.51
2022-08-20T04:42:47.155Z,57.78
2022-08-20T04:43:48.165Z,61.00
2022-08-20T04:44:47.135Z,58.70
2022-08-20T04:45:47.134Z,56.33
2022-08-20T04:46:47.131Z,59.06
2022-08-20T04:47:47.112Z,59.57
2022-08-20T04:48:48.606Z,60.32
2022-08-20T04:49:47.127Z,60.29
2022-08-20T04:50:47.126Z,58.43
2022-08-20T04:51:47.085Z,59.68
2022-08-20T04:52:47.076Z,58.37
2022-08-20T04:53:51.918Z,59.98
2022-08-20T04:54:48.088Z,60.73
2022-08-20T04:55:47.068Z,59.13
2022-08-20T04:56:47.058Z,61.19
2022-08-20T04:57:47.028Z,58.15
2022-08-20T04:58:47.046Z,58.53
2022-08-20T04:59:47.015Z,59.09
2022-08-20T05:00:47.076Z,61.03
2022-08-20T05:01:46.999Z,59.36
2022-08-20T05:02:46.995Z,61.60
2022-08-20T05:03:46.987Z,60.96
2022-08-20T05:04:46.974Z,60.56
2022-08-20T05:05:47.033Z,61.27
2022-08-20T05:06:46.983Z,61.58
2022-08-20T05:07:46.974Z,60.27
2022-08-20T05:08:46.960Z,61.53
2022-08-20T05:09:46.946Z,59.15
2022-08-20T05:10:46.931Z,57.64
2022-08-20T05:11:46.948Z,58.93
2022-08-20T05:12:56.864Z,61.78
2022-08-20T05:13:47.913Z,61.89
2022-08-20T05:14:46.926Z,60.01
2022-08-20T05:15:46.884Z,63.43
2022-08-20T05:16:46.888Z,61.05
2022-08-20T05:17:46.897Z,59.79
2022-08-20T05:18:52.453Z,62.04
2022-08-20T05:19:47.877Z,57.19
2022-08-20T05:20:46.863Z,57.17
2022-08-20T05:21:46.854Z,58.98
2022-08-20T05:22:46.868Z,58.41
2022-08-20T05:23:46.827Z,52.61
2022-08-20T05:24:46.826Z,56.30
2022-08-20T05:25:46.806Z,59.94
2022-08-20T05:26:46.825Z,58.70
2022-08-20T05:27:47.884Z,59.50
2022-08-20T05:28:53.867Z,58.54
2022-08-20T05:29:47.776Z,61.78
2022-08-20T05:30:47.671Z,59.20
2022-08-20T05:31:46.770Z,62.61
2022-08-20T05:32:46.784Z,59.98
2022-08-20T05:33:46.777Z,58.36
2022-08-20T05:34:46.748Z,57.43
2022-08-20T05:35:46.730Z,60.28
2022-08-20T05:36:47.003Z,61.90
2022-08-20T05:37:46.726Z,59.70
2022-08-20T05:38:49.775Z,59.54
2022-08-20T05:39:46.798Z,57.07
2022-08-20T05:40:46.694Z,59.35
2022-08-20T05:41:46.690Z,60.30
2022-08-20T05:42:46.666Z,61.74
2022-08-20T05:43:46.661Z,60.08
2022-08-20T05:44:46.676Z,62.63
2022-08-20T05:45:46.665Z,61.23
2022-08-20T05:46:46.657Z,58.79
2022-08-20T05:47:46.636Z,60.98
2022-08-20T05:48:46.630Z,60.21
2022-08-20T05:49:46.639Z,61.53
2022-08-20T05:50:46.614Z,60.43
2022-08-20T05:51:46.604Z,61.76
2022-08-20T05:52:46.605Z,61.16
2022-08-20T05:53:46.589Z,61.26
2022-08-20T05:54:47.158Z,58.47
2022-08-20T05:55:46.586Z,57.97
2022-08-20T05:56:46.566Z,58.92
2022-08-20T05:57:46.547Z,60.28
2022-08-20T05:58:46.546Z,60.71
2022-08-20T05:59:46.533Z,60.17
2022-08-20T06:00:46.570Z,60.49
2022-08-20T06:01:46.609Z,60.03
2022-08-20T06:02:46.508Z,60.18
2022-08-20T06:03:46.514Z,60.97
2022-08-20T06:04:46.500Z,58.09
2022-08-20T06:05:47.499Z,57.54
2022-08-20T06:06:47.347Z,61.57
2022-08-20T06:07:46.478Z,58.62
2022-08-20T06:08:46.474Z,59.63
2022-08-20T06:09:46.446Z,56.60
2022-08-20T06:10:46.444Z,60.45
2022-08-20T06:11:46.476Z,61.28
2022-08-20T06:12:46.420Z,60.67
2022-08-20T06:13:46.418Z,60.01
2022-08-20T06:14:46.445Z,62.47
2022-08-20T06:15:46.396Z,58.35
2022-08-20T06:16:57.138Z,62.84
2022-08-20T06:17:47.402Z,63.19
2022-08-20T06:18:47.370Z,59.45
2022-08-20T06:19:46.903Z,59.55
2022-08-20T06:20:46.356Z,59.45
2022-08-20T06:21:46.365Z,59.72
2022-08-20T06:22:46.340Z,59.72
2022-08-20T06:23:58.214Z,58.05
2022-08-20T06:24:47.330Z,57.48
2022-08-20T06:25:46.320Z,59.12
2022-08-20T06:26:46.351Z,61.05
2022-08-20T06:27:46.297Z,61.23
2022-08-20T06:28:46.299Z,57.62
2022-08-20T06:29:46.320Z,59.45
2022-08-20T06:30:46.273Z,57.50
2022-08-20T06:31:46.280Z,60.07
2022-08-20T06:32:46.253Z,57.59
2022-08-20T06:33:46.248Z,62.95
2022-08-20T06:34:50.019Z,59.04
2022-08-20T06:35:46.259Z,61.05
2022-08-20T06:36:46.228Z,62.32
2022-08-20T06:37:46.217Z,61.68
2022-08-20T06:38:46.357Z,63.95
2022-08-20T06:39:46.293Z,57.72
2022-08-20T06:40:46.200Z,61.10
2022-08-20T06:41:46.254Z,62.04
2022-08-20T06:42:48.823Z,58.55
2022-08-20T06:43:46.233Z,58.70
2022-08-20T06:44:46.227Z,61.76
2022-08-20T06:45:46.155Z,60.41
2022-08-20T06:46:46.149Z,61.14
2022-08-20T06:47:46.157Z,60.24
2022-08-20T06:48:46.131Z,61.12
2022-08-20T06:49:46.128Z,59.25
2022-08-20T06:50:47.513Z,62.58
2022-08-20T06:51:46.125Z,63.17
2022-08-20T06:52:52.658Z,57.69
2022-08-20T06:53:47.090Z,61.02
2022-08-20T06:54:46.082Z,61.99
2022-08-20T06:55:48.462Z,59.15
2022-08-20T06:56:46.064Z,60.69
2022-08-20T06:57:46.066Z,59.99
2022-08-20T06:58:46.069Z,60.34
2022-08-20T06:59:47.994Z,59.96
2022-08-20T07:00:47.107Z,61.63
2022-08-20T07:01:46.071Z,61.84
2022-08-20T07:02:46.007Z,60.40
2022-08-20T07:03:54.768Z,61.52
2022-08-20T07:04:47.036Z,62.36
2022-08-20T07:05:45.986Z,62.99
2022-08-20T07:06:45.979Z,59.57
2022-08-20T07:07:45.974Z,63.29
2022-08-20T07:08:45.988Z,60.61
2022-08-20T07:09:45.984Z,62.44
2022-08-20T07:10:45.953Z,63.21
2022-08-20T07:11:45.942Z,58.94
2022-08-20T07:12:45.945Z,61.58
2022-08-20T07:13:45.919Z,61.19
2022-08-20T07:14:45.945Z,60.46
2022-08-20T07:15:45.901Z,62.15
2022-08-20T07:16:45.895Z,61.82
2022-08-20T07:17:45.899Z,61.32
2022-08-20T07:18:45.960Z,64.76
2022-08-20T07:19:45.871Z,62.87
2022-08-20T07:20:45.901Z,65.12
2022-08-20T07:21:45.883Z,63.77
2022-08-20T07:22:45.853Z,61.87
2022-08-20T07:23:45.845Z,64.78
2022-08-20T07:24:49.019Z,64.72
2022-08-20T07:25:45.825Z,62.80
2022-08-20T07:26:45.814Z,63.75
2022-08-20T07:27:45.845Z,65.96
2022-08-20T07:28:45.807Z,66.34
2022-08-20T07:29:45.805Z,64.18
2022-08-20T07:30:56.679Z,64.99
2022-08-20T07:31:48.197Z,65.93
2022-08-20T07:32:45.796Z,64.99
2022-08-20T07:33:45.772Z,65.11
2022-08-20T07:34:45.754Z,65.99
2022-08-20T07:35:45.761Z,67.23
2022-08-20T07:36:45.744Z,66.66
2022-08-20T07:37:45.736Z,65.36
2022-08-20T07:38:45.791Z,65.53
2022-08-20T07:39:45.736Z,66.85
2022-08-20T07:40:45.695Z,65.58
2022-08-20T07:41:56.741Z,66.41
2022-08-20T07:42:46.688Z,67.27
2022-08-20T07:43:45.868Z,64.48
2022-08-20T07:44:45.710Z,68.88
2022-08-20T07:45:48.073Z,69.56
2022-08-20T07:46:46.666Z,69.51
2022-08-20T07:47:45.661Z,69.57
2022-08-20T07:48:45.649Z,67.73
2022-08-20T07:49:45.661Z,65.45
2022-08-20T07:50:45.627Z,66.12
2022-08-20T07:51:45.623Z,65.89
2022-08-20T07:52:45.604Z,66.18
2022-08-20T07:53:45.622Z,64.65
2022-08-20T07:54:45.588Z,65.30
2022-08-20T07:55:58.894Z,65.64
2022-08-20T07:56:46.580Z,64.21
2022-08-20T07:57:45.569Z,64.68
2022-08-20T07:58:45.558Z,65.33
2022-08-20T07:59:45.997Z,64.81
2022-08-20T08:00:45.615Z,66.19
2022-08-20T08:01:45.802Z,63.97
2022-08-20T08:02:45.915Z,65.82
2022-08-20T08:03:50.409Z,62.67
2022-08-20T08:04:46.795Z,64.80
2022-08-20T08:05:45.532Z,63.78
2022-08-20T08:06:45.542Z,64.01
2022-08-20T08:07:45.559Z,63.90
2022-08-20T08:08:45.484Z,62.22
2022-08-20T08:09:45.583Z,64.08
2022-08-20T08:10:45.523Z,64.56
2022-08-20T08:11:47.623Z,61.96
2022-08-20T08:12:45.506Z,62.13
2022-08-20T08:13:45.435Z,61.70
2022-08-20T08:14:45.422Z,63.66
2022-08-20T08:15:45.745Z,64.12
2022-08-20T08:16:45.459Z,63.85
2022-08-20T08:17:45.462Z,62.78
2022-08-20T08:18:45.398Z,63.10
2022-08-20T08:19:45.395Z,63.23
2022-08-20T08:20:46.594Z,62.92
2022-08-20T08:21:45.388Z,60.97
2022-08-20T08:22:45.367Z,63.04
2022-08-20T08:23:45.397Z,64.70
2022-08-20T08:24:56.797Z,62.45
2022-08-20T08:25:46.339Z,62.51
2022-08-20T08:26:45.331Z,61.07
2022-08-20T08:27:45.331Z,60.64
2022-08-20T08:28:45.330Z,61.90
2022-08-20T08:29:45.341Z,63.40
2022-08-20T08:30:45.340Z,61.57
2022-08-20T08:31:45.296Z,64.55
2022-08-20T08:32:45.338Z,63.34
2022-08-20T08:33:45.352Z,62.41
2022-08-20T08:34:45.286Z,62.59
2022-08-20T08:35:45.259Z,59.40
2022-08-20T08:36:45.250Z,60.89
2022-08-20T08:37:45.271Z,59.22
2022-08-20T08:38:45.242Z,62.25
2022-08-20T08:39:45.293Z,61.83
2022-08-20T08:40:45.335Z,62.67
2022-08-20T08:41:45.237Z,64.43
2022-08-20T08:42:45.222Z,61.63
2022-08-20T08:43:45.207Z,62.50
2022-08-20T08:44:45.272Z,62.75
2022-08-20T08:45:45.185Z,62.25
2022-08-20T08:46:45.193Z,61.63
2022-08-20T08:47:45.219Z,64.04
2022-08-20T08:48:45.258Z,64.48
2022-08-20T08:49:45.164Z,63.51
2022-08-20T08:50:54.286Z,62.89
2022-08-20T08:51:46.174Z,61.21
2022-08-20T08:52:45.119Z,60.16
2022-08-20T08:53:45.131Z,62.85
2022-08-20T08:54:45.104Z,63.50
2022-08-20T08:55:45.103Z,60.36
2022-08-20T08:56:50.420Z,61.63
2022-08-20T08:57:46.105Z,62.21
2022-08-20T08:58:45.144Z,60.00
2022-08-20T08:59:52.213Z,61.65
2022-08-20T09:00:56.115Z,60.86
2022-08-20T09:01:53.914Z,62.73
2022-08-20T09:02:46.108Z,60.37
2022-08-20T09:03:45.068Z,60.52
2022-08-20T09:04:46.244Z,60.98
2022-08-20T09:05:45.036Z,62.67
2022-08-20T09:06:45.015Z,62.26
2022-08-20T09:07:45.000Z,61.72
2022-08-20T09:08:45.000Z,62.52
2022-08-20T09:09:45.005Z,62.43
2022-08-20T09:10:45.017Z,61.45
2022-08-20T09:11:44.983Z,63.27
2022-08-20T09:12:47.723Z,62.33
2022-08-20T09:13:44.992Z,62.51
2022-08-20T09:14:44.948Z,60.62
2022-08-20T09:15:44.937Z,59.54
2022-08-20T09:16:53.016Z,58.08
2022-08-20T09:17:45.926Z,62.05
2022-08-20T09:18:44.930Z,61.09
2022-08-20T09:19:44.977Z,61.15
2022-08-20T09:20:44.898Z,62.27
2022-08-20T09:21:44.880Z,59.78
2022-08-20T09:22:44.889Z,60.32
2022-08-20T09:23:44.874Z,61.93
2022-08-20T09:24:44.885Z,60.08
2022-08-20T09:25:44.874Z,59.74
2022-08-20T09:26:44.849Z,60.53
2022-08-20T09:27:44.838Z,61.22
2022-08-20T09:28:47.023Z,61.38
2022-08-20T09:29:45.843Z,62.14
2022-08-20T09:30:44.812Z,62.61
2022-08-20T09:31:45.100Z,61.62
2022-08-20T09:32:44.788Z,60.71
2022-08-20T09:33:44.791Z,61.15
2022-08-20T09:34:44.782Z,62.59
2022-08-20T09:35:44.775Z,60.44
2022-08-20T09:36:44.768Z,61.33
2022-08-20T09:37:44.789Z,61.58
2022-08-20T09:38:44.747Z,61.10
2022-08-20T09:39:44.774Z,61.57
2022-08-20T09:40:44.771Z,61.42
2022-08-20T09:41:44.735Z,61.70
2022-08-20T09:42:44.715Z,61.38
2022-08-20T09:43:44.769Z,60.80
2022-08-20T09:44:44.691Z,58.83
2022-08-20T09:45:44.695Z,60.95
2022-08-20T09:46:44.682Z,60.68
2022-08-20T09:47:56.560Z,62.41
2022-08-20T09:48:45.684Z,61.71
2022-08-20T09:49:44.660Z,62.16
2022-08-20T09:50:44.647Z,60.39
2022-08-20T09:51:44.641Z,61.77
2022-08-20T09:52:44.643Z,60.45
2022-08-20T09:53:44.631Z,60.77
2022-08-20T09:54:46.542Z,60.14
2022-08-20T09:55:44.619Z,60.90
2022-08-20T09:56:44.652Z,61.16
2022-08-20T09:57:44.604Z,61.84
2022-08-20T09:58:44.616Z,62.35
2022-08-20T09:59:44.614Z,60.83
2022-08-20T10:00:44.570Z,62.10
2022-08-20T10:01:44.612Z,61.78
2022-08-20T10:02:44.552Z,61.78
2022-08-20T10:03:44.553Z,61.80
2022-08-20T10:04:44.557Z,59.66
2022-08-20T10:05:44.585Z,60.68
2022-08-20T10:06:44.554Z,60.61
2022-08-20T10:07:44.529Z,60.45
2022-08-20T10:08:44.517Z,59.93
2022-08-20T10:09:44.511Z,60.60
2022-08-20T10:10:44.497Z,61.11
2022-08-20T10:11:44.513Z,60.93
2022-08-20T10:12:44.483Z,64.12
2022-08-20T10:13:44.489Z,60.89
2022-08-20T10:14:44.479Z,61.56
2022-08-20T10:15:44.473Z,57.62
2022-08-20T10:16:44.702Z,61.68
2022-08-20T10:17:44.439Z,60.93
2022-08-20T10:18:44.465Z,61.83
2022-08-20T10:19:44.423Z,60.86
2022-08-20T10:20:44.418Z,60.54
2022-08-20T10:21:44.411Z,61.38
2022-08-20T10:22:44.424Z,61.09
2022-08-20T10:23:44.398Z,60.17
2022-08-20T10:24:44.402Z,60.55
2022-08-20T10:25:44.389Z,58.14
2022-08-20T10:26:44.520Z,58.65
2022-08-20T10:27:44.397Z,59.46
2022-08-20T10:28:44.356Z,61.05
2022-08-20T10:29:46.986Z,59.84
2022-08-20T10:30:44.354Z,59.73
2022-08-20T10:31:44.327Z,61.25
2022-08-20T10:32:45.246Z,60.30
2022-08-20T10:33:44.765Z,62.03
2022-08-20T10:34:44.310Z,61.45
2022-08-20T10:35:44.326Z,62.12
2022-08-20T10:36:44.314Z,59.71
2022-08-20T10:37:44.283Z,59.43
2022-08-20T10:38:44.393Z,62.22
2022-08-20T10:39:44.299Z,61.33
2022-08-20T10:40:52.209Z,60.59
2022-08-20T10:41:45.259Z,62.01
2022-08-20T10:42:44.268Z,62.60
2022-08-20T10:43:44.349Z,61.59
2022-08-20T10:44:44.475Z,62.96
2022-08-20T10:45:44.233Z,62.51
2022-08-20T10:46:44.212Z,61.32
2022-08-20T10:47:44.206Z,62.41
2022-08-20T10:48:44.198Z,61.03
2022-08-20T10:49:44.193Z,60.42
2022-08-20T10:50:44.234Z,60.17
2022-08-20T10:51:44.171Z,61.09
2022-08-20T10:52:44.307Z,62.00
2022-08-20T10:53:44.221Z,61.80
2022-08-20T10:54:44.152Z,62.45
2022-08-20T10:55:44.149Z,60.74
2022-08-20T10:56:44.176Z,61.35
2022-08-20T10:57:44.158Z,62.42
2022-08-20T10:58:44.529Z,59.54
2022-08-20T10:59:44.110Z,59.42
2022-08-20T11:00:44.102Z,61.39
2022-08-20T11:01:44.138Z,61.97
2022-08-20T11:02:44.150Z,61.88
2022-08-20T11:03:44.079Z,61.32
2022-08-20T11:04:44.122Z,62.22
2022-08-20T11:05:44.063Z,62.34
2022-08-20T11:06:44.074Z,63.06
2022-08-20T11:08:00.233Z,58.66
2022-08-20T11:08:45.056Z,59.04
2022-08-20T11:09:44.037Z,59.12
2022-08-20T11:10:44.050Z,58.94
2022-08-20T11:11:44.019Z,58.60
2022-08-20T11:12:45.556Z,59.40
2022-08-20T11:13:44.025Z,60.57
2022-08-20T11:14:43.993Z,59.85
2022-08-20T11:15:44.008Z,58.72
2022-08-20T11:16:44.010Z,58.46
2022-08-20T11:17:43.982Z,59.08
2022-08-20T11:18:47.427Z,59.20
2022-08-20T11:19:43.952Z,58.79
2022-08-20T11:20:43.968Z,57.54
2022-08-20T11:21:44.057Z,60.35
2022-08-20T11:22:43.930Z,59.73
2022-08-20T11:23:43.929Z,59.58
2022-08-20T11:24:43.913Z,57.41
2022-08-20T11:25:43.929Z,59.16
2022-08-20T11:26:43.981Z,59.07
2022-08-20T11:27:43.896Z,57.16
2022-08-20T11:28:43.916Z,58.78
2022-08-20T11:29:43.885Z,58.15
2022-08-20T11:30:43.870Z,59.49
2022-08-20T11:31:43.871Z,58.94
2022-08-20T11:32:44.057Z,59.11
2022-08-20T11:33:44.294Z,58.80
2022-08-20T11:34:43.920Z,58.77
2022-08-20T11:35:49.256Z,61.57
2022-08-20T11:36:44.828Z,59.95
2022-08-20T11:37:43.823Z,60.87
2022-08-20T11:38:43.919Z,59.80
2022-08-20T11:39:43.872Z,59.49
2022-08-20T11:40:43.925Z,58.05
2022-08-20T11:41:43.822Z,57.42
2022-08-20T11:43:10.720Z,57.95
2022-08-20T11:43:59.562Z,57.19
2022-08-20T11:44:44.773Z,56.51
2022-08-20T11:45:43.795Z,57.50
2022-08-20T11:46:43.747Z,55.69
2022-08-20T11:47:43.747Z,57.23
2022-08-20T11:48:43.757Z,58.47
2022-08-20T11:49:43.720Z,57.16
2022-08-20T11:50:43.735Z,56.92
2022-08-20T11:51:49.683Z,59.85
2022-08-20T11:52:44.792Z,57.64
2022-08-20T11:53:43.700Z,58.62
2022-08-20T11:54:43.710Z,60.32
2022-08-20T11:55:43.784Z,62.43
2022-08-20T11:56:45.735Z,60.91
2022-08-20T11:57:43.672Z,61.31
2022-08-20T11:58:43.661Z,59.58
2022-08-20T11:59:43.674Z,59.33
2022-08-20T12:00:43.717Z,59.54
2022-08-20T12:02:01.896Z,59.57
2022-08-20T12:02:44.714Z,58.18
2022-08-20T12:03:43.640Z,60.41
2022-08-20T12:04:43.601Z,57.43
2022-08-20T12:05:43.602Z,58.17
2022-08-20T12:06:43.660Z,58.47
2022-08-20T12:07:43.697Z,57.72
2022-08-20T12:08:43.601Z,57.37
2022-08-20T12:09:50.351Z,57.68
2022-08-20T12:10:44.577Z,56.93
2022-08-20T12:11:43.565Z,57.16
2022-08-20T12:12:43.572Z,59.11
2022-08-20T12:13:48.054Z,56.62
2022-08-20T12:14:44.536Z,58.72
2022-08-20T12:15:43.560Z,57.65
2022-08-20T12:16:43.514Z,57.25
2022-08-20T12:17:44.227Z,59.35
2022-08-20T12:18:43.516Z,60.15
2022-08-20T12:19:43.586Z,59.41
2022-08-20T12:20:43.485Z,60.87
2022-08-20T12:21:43.479Z,60.78
2022-08-20T12:22:43.490Z,58.53
2022-08-20T12:23:43.461Z,58.70
2022-08-20T12:24:44.291Z,56.62
2022-08-20T12:25:44.299Z,59.12
2022-08-20T12:26:43.447Z,57.79
2022-08-20T12:27:43.435Z,57.45
2022-08-20T12:28:43.465Z,58.14
2022-08-20T12:29:43.413Z,57.14
2022-08-20T12:30:44.291Z,56.98
2022-08-20T12:31:43.402Z,58.87
2022-08-20T12:32:44.284Z,60.87
2022-08-20T12:33:43.384Z,62.72
2022-08-20T12:34:43.415Z,59.38
2022-08-20T12:35:43.364Z,60.02
2022-08-20T12:36:43.381Z,59.83
2022-08-20T12:37:44.356Z,60.70
2022-08-20T12:38:43.919Z,60.15
2022-08-20T12:39:43.399Z,60.21
2022-08-20T12:40:44.300Z,61.31
2022-08-20T12:41:43.329Z,60.24
2022-08-20T12:42:43.393Z,59.06
2022-08-20T12:43:43.659Z,61.96
2022-08-20T12:44:43.306Z,61.55
2022-08-20T12:45:43.795Z,62.83
2022-08-20T12:46:43.789Z,60.11
2022-08-20T12:47:45.047Z,63.08
2022-08-20T12:48:43.495Z,60.65
2022-08-20T12:49:43.254Z,60.19
2022-08-20T12:50:43.247Z,57.87
2022-08-20T12:51:44.236Z,61.55
2022-08-20T12:52:43.247Z,57.95